sensor_id;sensor_type;location;lat;lon;timestamp;pressure;altitude;pressure_sealevel;temperature;humidity
28167;BME280;15455;53.376;-6.262;2022-07-24T00:01:23;100482.66;;;17.18;100.00
28167;BME280;15455;53.376;-6.262;2022-07-24T00:04:09;100471.31;;;17.16;100.00
28167;BME280;15455;53.376;-6.262;2022-07-24T00:06:54;100471.31;;;17.16;100.00
28167;BME280;15455;53.376;-6.262;2022-07-24T00:09:40;100471.38;;;17.15;100.00
28167;BME280;15455;53.376;-6.262;2022-07-24T00:12:25;100472.31;;;17.12;100.00
28167;BME280;15455;53.376;-6.262;2022-07-24T00:15:11;100473.28;;;17.10;100.00
28167;BME280;15455;53.376;-6.262;2022-07-24T00:17:57;100465.53;;;17.05;100.00
28167;BME280;15455;53.376;-6.262;2022-07-24T00:20:43;100470.91;;;17.02;100.00
28167;BME280;15455;53.376;-6.262;2022-07-24T00:23:29;100466.50;;;17.02;100.00
28167;BME280;15455;53.376;-6.262;2022-07-24T00:26:14;100468.34;;;17.00;100.00
28167;BME280;15455;53.376;-6.262;2022-07-24T00:29:00;100456.84;;;17.03;100.00
28167;BME280;15455;53.376;-6.262;2022-07-24T00:31:46;100454.19;;;17.03;100.00
28167;BME280;15455;53.376;-6.262;2022-07-24T00:34:32;100470.88;;;17.04;100.00
28167;BME280;15455;53.376;-6.262;2022-07-24T00:37:17;100472.84;;;16.97;100.00
28167;BME280;15455;53.376;-6.262;2022-07-24T00:40:04;100487.03;;;16.93;100.00
28167;BME280;15455;53.376;-6.262;2022-07-24T00:42:50;100478.31;;;16.91;100.00
28167;BME280;15455;53.376;-6.262;2022-07-24T00:45:36;100476.63;;;16.88;100.00
28167;BME280;15455;53.376;-6.262;2022-07-24T00:48:21;100467.72;;;16.92;100.00
28167;BME280;15455;53.376;-6.262;2022-07-24T00:51:07;100467.63;;;16.95;100.00
28167;BME280;15455;53.376;-6.262;2022-07-24T00:53:52;100463.28;;;16.94;100.00
28167;BME280;15455;53.376;-6.262;2022-07-24T00:56:40;100458.81;;;16.96;100.00
28167;BME280;15455;53.376;-6.262;2022-07-24T00:59:25;100465.69;;;17.00;100.00
28167;BME280;15455;53.376;-6.262;2022-07-24T01:02:11;100452.47;;;17.02;100.00
28167;BME280;15455;53.376;-6.262;2022-07-24T01:04:57;100441.88;;;17.04;100.00
28167;BME280;15455;53.376;-6.262;2022-07-24T01:07:43;100448.88;;;17.05;100.00
28167;BME280;15455;53.376;-6.262;2022-07-24T01:10:28;100447.94;;;17.06;100.00
28167;BME280;15455;53.376;-6.262;2022-07-24T01:13:14;100446.19;;;17.06;100.00
28167;BME280;15455;53.376;-6.262;2022-07-24T01:15:59;100447.03;;;17.07;100.00
28167;BME280;15455;53.376;-6.262;2022-07-24T01:18:45;100454.94;;;17.07;100.00
28167;BME280;15455;53.376;-6.262;2022-07-24T01:21:30;100457.56;;;17.07;100.00
28167;BME280;15455;53.376;-6.262;2022-07-24T01:24:16;100467.22;;;17.08;100.00
28167;BME280;15455;53.376;-6.262;2022-07-24T01:27:02;100468.00;;;17.10;100.00
28167;BME280;15455;53.376;-6.262;2022-07-24T01:29:48;100464.53;;;17.09;100.00
28167;BME280;15455;53.376;-6.262;2022-07-24T01:32:34;100461.88;;;17.09;100.00
28167;BME280;15455;53.376;-6.262;2022-07-24T01:35:19;100449.72;;;17.05;100.00
28167;BME280;15455;53.376;-6.262;2022-07-24T01:38:08;100454.19;;;17.03;100.00
28167;BME280;15455;53.376;-6.262;2022-07-24T01:40:54;100461.28;;;17.01;100.00
28167;BME280;15455;53.376;-6.262;2022-07-24T01:43:40;100473.63;;;17.00;100.00
28167;BME280;15455;53.376;-6.262;2022-07-24T01:46:25;100479.84;;;16.98;100.00
28167;BME280;15455;53.376;-6.262;2022-07-24T01:49:11;100482.75;;;16.90;100.00
28167;BME280;15455;53.376;-6.262;2022-07-24T01:51:57;100467.19;;;16.81;100.00
28167;BME280;15455;53.376;-6.262;2022-07-24T01:54:42;100477.13;;;16.73;100.00
28167;BME280;15455;53.376;-6.262;2022-07-24T01:57:28;100481.00;;;16.61;100.00
28167;BME280;15455;53.376;-6.262;2022-07-24T02:00:15;100487.47;;;16.50;100.00
28167;BME280;15455;53.376;-6.262;2022-07-24T02:03:01;100488.56;;;16.43;100.00
28167;BME280;15455;53.376;-6.262;2022-07-24T02:05:47;100488.03;;;16.32;100.00
28167;BME280;15455;53.376;-6.262;2022-07-24T02:08:32;100483.97;;;16.22;100.00
28167;BME280;15455;53.376;-6.262;2022-07-24T02:11:18;100490.28;;;16.16;100.00
28167;BME280;15455;53.376;-6.262;2022-07-24T02:14:05;100489.66;;;16.08;100.00
28167;BME280;15455;53.376;-6.262;2022-07-24T02:16:50;100492.38;;;16.05;100.00
28167;BME280;15455;53.376;-6.262;2022-07-24T02:19:36;100499.59;;;15.98;100.00
28167;BME280;15455;53.376;-6.262;2022-07-24T02:22:21;100489.88;;;16.00;100.00
28167;BME280;15455;53.376;-6.262;2022-07-24T02:25:07;100499.63;;;15.96;100.00
28167;BME280;15455;53.376;-6.262;2022-07-24T02:27:53;100501.44;;;15.94;100.00
28167;BME280;15455;53.376;-6.262;2022-07-24T02:30:39;100497.03;;;15.95;100.00
28167;BME280;15455;53.376;-6.262;2022-07-24T02:33:26;100485.63;;;15.94;100.00
28167;BME280;15455;53.376;-6.262;2022-07-24T02:36:11;100492.72;;;15.92;100.00
28167;BME280;15455;53.376;-6.262;2022-07-24T02:38:57;100489.50;;;15.83;100.00
28167;BME280;15455;53.376;-6.262;2022-07-24T02:41:42;100490.59;;;15.74;100.00
28167;BME280;15455;53.376;-6.262;2022-07-24T02:44:28;100491.66;;;15.67;100.00
28167;BME280;15455;53.376;-6.262;2022-07-24T02:47:13;100493.63;;;15.60;100.00
28167;BME280;15455;53.376;-6.262;2022-07-24T02:49:59;100489.25;;;15.59;100.00
28167;BME280;15455;53.376;-6.262;2022-07-24T02:52:44;100497.91;;;15.62;100.00
28167;BME280;15455;53.376;-6.262;2022-07-24T02:55:30;100493.63;;;15.60;100.00
28167;BME280;15455;53.376;-6.262;2022-07-24T02:58:15;100491.84;;;15.60;100.00
28167;BME280;15455;53.376;-6.262;2022-07-24T03:01:01;100498.84;;;15.61;100.00
28167;BME280;15455;53.376;-6.262;2022-07-24T03:03:46;100505.78;;;15.62;100.00
28167;BME280;15455;53.376;-6.262;2022-07-24T03:06:32;100497.94;;;15.61;100.00
28167;BME280;15455;53.376;-6.262;2022-07-24T03:09:20;100502.34;;;15.60;100.00
28167;BME280;15455;53.376;-6.262;2022-07-24T03:12:05;100488.25;;;15.63;100.00
28167;BME280;15455;53.376;-6.262;2022-07-24T03:14:50;100494.34;;;15.65;100.00
28167;BME280;15455;53.376;-6.262;2022-07-24T03:17:36;100489.88;;;15.69;100.00
28167;BME280;15455;53.376;-6.262;2022-07-24T03:20:26;100488.03;;;15.71;100.00
28167;BME280;15455;53.376;-6.262;2022-07-24T03:23:12;100481.75;;;15.76;100.00
28167;BME280;15455;53.376;-6.262;2022-07-24T03:25:58;100480.84;;;15.79;100.00
28167;BME280;15455;53.376;-6.262;2022-07-24T03:28:43;100483.47;;;15.79;100.00
28167;BME280;15455;53.376;-6.262;2022-07-24T03:31:28;100471.16;;;15.79;100.00
28167;BME280;15455;53.376;-6.262;2022-07-24T03:34:14;100474.63;;;15.82;100.00
28167;BME280;15455;53.376;-6.262;2022-07-24T03:37:00;100473.56;;;15.87;100.00
28167;BME280;15455;53.376;-6.262;2022-07-24T03:39:45;100482.25;;;15.91;100.00
28167;BME280;15455;53.376;-6.262;2022-07-24T03:42:30;100487.47;;;15.92;100.00
28167;BME280;15455;53.376;-6.262;2022-07-24T03:45:16;100481.25;;;15.95;100.00
28167;BME280;15455;53.376;-6.262;2022-07-24T03:48:02;100476.75;;;15.98;100.00
28167;BME280;15455;53.376;-6.262;2022-07-24T03:50:48;100471.47;;;15.98;100.00
28167;BME280;15455;53.376;-6.262;2022-07-24T03:53:34;100470.63;;;15.98;100.00
28167;BME280;15455;53.376;-6.262;2022-07-24T03:56:19;100473.25;;;15.98;100.00
28167;BME280;15455;53.376;-6.262;2022-07-24T03:59:10;100467.09;;;15.99;100.00
28167;BME280;15455;53.376;-6.262;2022-07-24T04:01:55;100470.63;;;15.98;100.00
28167;BME280;15455;53.376;-6.262;2022-07-24T04:04:40;100472.44;;;15.96;100.00
28167;BME280;15455;53.376;-6.262;2022-07-24T04:07:26;100473.41;;;15.93;100.00
28167;BME280;15455;53.376;-6.262;2022-07-24T04:10:11;100473.50;;;15.90;100.00
28167;BME280;15455;53.376;-6.262;2022-07-24T04:12:57;100474.41;;;15.89;100.00
28167;BME280;15455;53.376;-6.262;2022-07-24T04:15:42;100475.34;;;15.87;100.00
28167;BME280;15455;53.376;-6.262;2022-07-24T04:18:28;100473.69;;;15.83;100.00
28167;BME280;15455;53.376;-6.262;2022-07-24T04:21:13;100471.16;;;15.79;100.00
28167;BME280;15455;53.376;-6.262;2022-07-24T04:23:59;100467.78;;;15.73;100.00
28167;BME280;15455;53.376;-6.262;2022-07-24T04:26:44;100474.03;;;15.70;100.00
28167;BME280;15455;53.376;-6.262;2022-07-24T04:29:30;100476.81;;;15.64;100.00
28167;BME280;15455;53.376;-6.262;2022-07-24T04:32:16;100470.84;;;15.59;100.00
28167;BME280;15455;53.376;-6.262;2022-07-24T04:35:01;100479.75;;;15.53;100.00
28167;BME280;15455;53.376;-6.262;2022-07-24T04:37:46;100471.00;;;15.53;100.00
28167;BME280;15455;53.376;-6.262;2022-07-24T04:40:32;100475.53;;;15.48;100.00
28167;BME280;15455;53.376;-6.262;2022-07-24T04:43:18;100476.50;;;15.43;100.00
28167;BME280;15455;53.376;-6.262;2022-07-24T04:46:03;100469.47;;;15.45;100.00
28167;BME280;15455;53.376;-6.262;2022-07-24T04:48:49;100473.75;;;15.48;100.00
28167;BME280;15455;53.376;-6.262;2022-07-24T04:51:34;100479.03;;;15.46;100.00
28167;BME280;15455;53.376;-6.262;2022-07-24T04:54:20;100473.66;;;15.51;100.00
28167;BME280;15455;53.376;-6.262;2022-07-24T04:57:05;100483.28;;;15.52;100.00
28167;BME280;15455;53.376;-6.262;2022-07-24T04:59:51;100477.09;;;15.55;100.00
28167;BME280;15455;53.376;-6.262;2022-07-24T05:02:37;100478.78;;;15.57;100.00
28167;BME280;15455;53.376;-6.262;2022-07-24T05:05:23;100476.94;;;15.59;100.00
28167;BME280;15455;53.376;-6.262;2022-07-24T05:08:08;100474.28;;;15.61;100.00
28167;BME280;15455;53.376;-6.262;2022-07-24T05:10:53;100462.84;;;15.62;100.00
28167;BME280;15455;53.376;-6.262;2022-07-24T05:13:39;100467.31;;;15.60;100.00
28167;BME280;15455;53.376;-6.262;2022-07-24T05:16:24;100467.03;;;15.69;100.00
28167;BME280;15455;53.376;-6.262;2022-07-24T05:19:10;100461.81;;;15.68;100.00
28167;BME280;15455;53.376;-6.262;2022-07-24T05:21:55;100461.72;;;15.71;100.00
28167;BME280;15455;53.376;-6.262;2022-07-24T05:24:41;100461.50;;;15.80;100.00
28167;BME280;15455;53.376;-6.262;2022-07-24T05:27:26;100453.19;;;15.94;100.00
28167;BME280;15455;53.376;-6.262;2022-07-24T05:30:12;100448.63;;;16.01;100.00
28167;BME280;15455;53.376;-6.262;2022-07-24T05:32:57;100454.69;;;16.03;100.00
28167;BME280;15455;53.376;-6.262;2022-07-24T05:35:43;100454.69;;;16.03;100.00
28167;BME280;15455;53.376;-6.262;2022-07-24T05:38:33;100446.00;;;16.01;100.00
28167;BME280;15455;53.376;-6.262;2022-07-24T05:41:18;100449.44;;;16.03;100.00
28167;BME280;15455;53.376;-6.262;2022-07-24T05:44:04;100443.97;;;16.09;100.00
28167;BME280;15455;53.376;-6.262;2022-07-24T05:46:49;100448.28;;;16.11;100.00
28167;BME280;15455;53.376;-6.262;2022-07-24T05:49:35;100442.94;;;16.14;100.00
28167;BME280;15455;53.376;-6.262;2022-07-24T05:52:21;100443.75;;;16.17;100.00
28167;BME280;15455;53.376;-6.262;2022-07-24T05:55:07;100443.56;;;16.23;100.00
28167;BME280;15455;53.376;-6.262;2022-07-24T05:58:01;100444.25;;;16.29;100.00
28167;BME280;15455;53.376;-6.262;2022-07-24T06:00:48;100434.31;;;16.38;100.00
28167;BME280;15455;53.376;-6.262;2022-07-24T06:03:33;100440.31;;;16.43;100.00
28167;BME280;15455;53.376;-6.262;2022-07-24T06:06:18;100425.19;;;16.48;100.00
28167;BME280;15455;53.376;-6.262;2022-07-24T06:09:04;100422.50;;;16.51;100.00
28167;BME280;15455;53.376;-6.262;2022-07-24T06:11:51;100421.47;;;16.55;100.00
28167;BME280;15455;53.376;-6.262;2022-07-24T06:14:37;100418.75;;;16.58;100.00
28167;BME280;15455;53.376;-6.262;2022-07-24T06:17:22;100418.53;;;16.64;100.00
28167;BME280;15455;53.376;-6.262;2022-07-24T06:20:10;100416.59;;;16.70;100.00
28167;BME280;15455;53.376;-6.262;2022-07-24T06:23:01;100412.16;;;16.72;100.00
28167;BME280;15455;53.376;-6.262;2022-07-24T06:25:46;100413.66;;;16.79;100.00
28167;BME280;15455;53.376;-6.262;2022-07-24T06:28:32;100399.47;;;16.83;100.00
28167;BME280;15455;53.376;-6.262;2022-07-24T06:31:17;100401.16;;;16.86;100.00
28167;BME280;15455;53.376;-6.262;2022-07-24T06:34:03;100397.50;;;16.90;100.00
28167;BME280;15455;53.376;-6.262;2022-07-24T06:36:48;100393.84;;;16.94;100.00
28167;BME280;15455;53.376;-6.262;2022-07-24T06:39:34;100391.06;;;16.98;100.00
28167;BME280;15455;53.376;-6.262;2022-07-24T06:42:20;100395.25;;;17.04;100.00
28167;BME280;15455;53.376;-6.262;2022-07-24T06:45:06;100401.25;;;17.09;100.00
28167;BME280;15455;53.376;-6.262;2022-07-24T06:47:51;100387.88;;;17.14;100.00
28167;BME280;15455;53.376;-6.262;2022-07-24T06:50:36;100384.22;;;17.18;100.00
28167;BME280;15455;53.376;-6.262;2022-07-24T06:53:22;100387.41;;;17.28;100.00
28167;BME280;15455;53.376;-6.262;2022-07-24T06:56:08;100383.63;;;17.35;100.00
28167;BME280;15455;53.376;-6.262;2022-07-24T06:58:53;100378.13;;;17.41;100.00
28167;BME280;15455;53.376;-6.262;2022-07-24T07:01:39;100372.59;;;17.47;100.00
28167;BME280;15455;53.376;-6.262;2022-07-24T07:04:24;100376.91;;;17.50;100.00
28167;BME280;15455;53.376;-6.262;2022-07-24T07:07:10;100373.44;;;17.49;100.00
28167;BME280;15455;53.376;-6.262;2022-07-24T07:09:56;100372.44;;;17.52;100.00
28167;BME280;15455;53.376;-6.262;2022-07-24T07:12:41;100374.03;;;17.56;100.00
28167;BME280;15455;53.376;-6.262;2022-07-24T07:15:27;100372.09;;;17.61;100.00
28167;BME280;15455;53.376;-6.262;2022-07-24T07:18:13;100370.88;;;17.70;100.00
28167;BME280;15455;53.376;-6.262;2022-07-24T07:21:00;100374.97;;;17.79;100.00
28167;BME280;15455;53.376;-6.262;2022-07-24T07:23:45;100378.94;;;17.91;100.00
28167;BME280;15455;53.376;-6.262;2022-07-24T07:26:34;100359.09;;;18.02;100.00
28167;BME280;15455;53.376;-6.262;2022-07-24T07:29:20;100362.72;;;18.22;100.00
28167;BME280;15455;53.376;-6.262;2022-07-24T07:32:05;100366.34;;;18.42;100.00
28167;BME280;15455;53.376;-6.262;2022-07-24T07:34:51;100372.44;;;18.64;100.00
28167;BME280;15455;53.376;-6.262;2022-07-24T07:37:38;100368.00;;;18.87;100.00
28167;BME280;15455;53.376;-6.262;2022-07-24T07:40:25;100369.47;;;18.94;100.00
28167;BME280;15455;53.376;-6.262;2022-07-24T07:43:11;100353.03;;;18.86;100.00
28167;BME280;15455;53.376;-6.262;2022-07-24T07:45:57;100361.38;;;18.77;100.00
28167;BME280;15455;53.376;-6.262;2022-07-24T07:48:42;100358.31;;;18.65;100.00
28167;BME280;15455;53.376;-6.262;2022-07-24T07:51:28;100347.75;;;18.65;100.00
28167;BME280;15455;53.376;-6.262;2022-07-24T07:54:14;100349.00;;;18.77;100.00
28167;BME280;15455;53.376;-6.262;2022-07-24T07:56:59;100348.22;;;18.96;100.00
28167;BME280;15455;53.376;-6.262;2022-07-24T07:59:44;100345.75;;;19.12;100.00
28167;BME280;15455;53.376;-6.262;2022-07-24T08:02:30;100335.44;;;19.26;99.43
28167;BME280;15455;53.376;-6.262;2022-07-24T08:05:16;100346.09;;;19.43;99.16
28167;BME280;15455;53.376;-6.262;2022-07-24T08:08:02;100355.69;;;19.46;98.04
28167;BME280;15455;53.376;-6.262;2022-07-24T08:10:48;100351.75;;;19.55;97.64
28167;BME280;15455;53.376;-6.262;2022-07-24T08:13:34;100342.91;;;19.56;96.71
28167;BME280;15455;53.376;-6.262;2022-07-24T08:16:20;100333.81;;;19.61;98.39
28167;BME280;15455;53.376;-6.262;2022-07-24T08:19:06;100336.31;;;19.65;98.29
28167;BME280;15455;53.376;-6.262;2022-07-24T08:21:52;100321.19;;;19.67;97.47
28167;BME280;15455;53.376;-6.262;2022-07-24T08:24:37;100347.44;;;19.71;96.83
28167;BME280;15455;53.376;-6.262;2022-07-24T08:27:23;100329.06;;;19.68;96.78
28167;BME280;15455;53.376;-6.262;2022-07-24T08:30:09;100335.44;;;19.64;96.01
28167;BME280;15455;53.376;-6.262;2022-07-24T08:32:55;100325.88;;;19.61;95.23
28167;BME280;15455;53.376;-6.262;2022-07-24T08:35:40;100319.06;;;19.75;96.67
28167;BME280;15455;53.376;-6.262;2022-07-24T08:38:26;100327.53;;;19.83;93.27
28167;BME280;15455;53.376;-6.262;2022-07-24T08:41:12;100320.78;;;19.95;94.70
28167;BME280;15455;53.376;-6.262;2022-07-24T08:43:59;100318.84;;;20.16;94.85
28167;BME280;15455;53.376;-6.262;2022-07-24T08:46:44;100310.91;;;20.34;91.79
28167;BME280;15455;53.376;-6.262;2022-07-24T08:49:31;100313.81;;;20.46;90.39
28167;BME280;15455;53.376;-6.262;2022-07-24T08:52:18;100308.66;;;20.43;89.25
28167;BME280;15455;53.376;-6.262;2022-07-24T08:55:05;100312.41;;;20.39;89.55
28167;BME280;15455;53.376;-6.262;2022-07-24T08:57:51;100306.34;;;20.37;93.11
28167;BME280;15455;53.376;-6.262;2022-07-24T09:00:36;100294.31;;;20.30;92.19
28167;BME280;15455;53.376;-6.262;2022-07-24T09:03:22;100304.78;;;20.33;92.89
28167;BME280;15455;53.376;-6.262;2022-07-24T09:06:08;100295.25;;;20.29;91.24
28167;BME280;15455;53.376;-6.262;2022-07-24T09:09:02;100283.81;;;20.46;90.70
28167;BME280;15455;53.376;-6.262;2022-07-24T09:11:49;100286.34;;;20.65;92.76
28167;BME280;15455;53.376;-6.262;2022-07-24T09:14:42;100277.81;;;20.60;88.63
28167;BME280;15455;53.376;-6.262;2022-07-24T09:17:28;100283.03;;;20.61;90.41
28167;BME280;15455;53.376;-6.262;2022-07-24T09:20:15;100267.50;;;20.54;89.57
28167;BME280;15455;53.376;-6.262;2022-07-24T09:23:00;100252.63;;;20.51;88.42
28167;BME280;15455;53.376;-6.262;2022-07-24T09:25:53;100260.84;;;20.62;91.60
28167;BME280;15455;53.376;-6.262;2022-07-24T09:28:53;100252.22;;;20.76;90.66
28167;BME280;15455;53.376;-6.262;2022-07-24T09:32:00;100245.13;;;20.93;89.86
28167;BME280;15455;53.376;-6.262;2022-07-24T09:34:46;100250.56;;;21.07;86.55
28167;BME280;15455;53.376;-6.262;2022-07-24T09:37:36;100241.69;;;21.24;87.60
28167;BME280;15455;53.376;-6.262;2022-07-24T09:40:28;100239.72;;;21.28;86.31
28167;BME280;15455;53.376;-6.262;2022-07-24T09:46:08;100224.84;;;21.57;83.53
28167;BME280;15455;53.376;-6.262;2022-07-24T09:48:57;100225.53;;;21.61;82.91
28167;BME280;15455;53.376;-6.262;2022-07-24T09:51:43;100218.31;;;21.63;82.13
28167;BME280;15455;53.376;-6.262;2022-07-24T09:54:35;100199.63;;;21.64;82.46
28167;BME280;15455;53.376;-6.262;2022-07-24T09:57:29;100205.22;;;21.60;84.13
28167;BME280;15455;53.376;-6.262;2022-07-24T10:00:15;100194.88;;;21.55;83.43
28167;BME280;15455;53.376;-6.262;2022-07-24T10:03:05;100190.72;;;21.49;82.68
28167;BME280;15455;53.376;-6.262;2022-07-24T10:05:55;100183.63;;;21.50;84.55
28167;BME280;15455;53.376;-6.262;2022-07-24T10:08:43;100184.81;;;21.60;85.05
28167;BME280;15455;53.376;-6.262;2022-07-24T10:11:31;100177.09;;;21.72;82.86
28167;BME280;15455;53.376;-6.262;2022-07-24T10:14:19;100183.63;;;21.66;80.05
28167;BME280;15455;53.376;-6.262;2022-07-24T10:17:07;100181.91;;;21.49;79.41
28167;BME280;15455;53.376;-6.262;2022-07-24T10:20:10;100177.56;;;21.48;81.04
28167;BME280;15455;53.376;-6.262;2022-07-24T10:23:24;100169.78;;;21.61;81.66
28167;BME280;15455;53.376;-6.262;2022-07-24T10:26:16;100172.72;;;21.71;81.45
28167;BME280;15455;53.376;-6.262;2022-07-24T10:29:10;100164.78;;;21.85;82.28
28167;BME280;15455;53.376;-6.262;2022-07-24T10:31:56;100155.84;;;22.02;82.27
28167;BME280;15455;53.376;-6.262;2022-07-24T10:40:55;100152.28;;;22.32;72.02
28167;BME280;15455;53.376;-6.262;2022-07-24T10:44:12;100139.91;;;22.31;72.33
28167;BME280;15455;53.376;-6.262;2022-07-24T10:49:49;100153.19;;;22.02;74.20
28167;BME280;15455;53.376;-6.262;2022-07-24T10:52:35;100154.31;;;21.98;74.02
28167;BME280;15455;53.376;-6.262;2022-07-24T10:55:30;100149.59;;;22.03;75.12
28167;BME280;15455;53.376;-6.262;2022-07-24T10:58:20;100139.50;;;22.08;75.75
28167;BME280;15455;53.376;-6.262;2022-07-24T11:01:28;100142.19;;;22.23;76.57
28167;BME280;15455;53.376;-6.262;2022-07-24T11:07:09;100130.75;;;22.65;75.47
28167;BME280;15455;53.376;-6.262;2022-07-24T11:10:02;100132.84;;;23.16;75.74
28167;BME280;15455;53.376;-6.262;2022-07-24T11:12:52;100125.53;;;23.47;72.16
28167;BME280;15455;53.376;-6.262;2022-07-24T11:21:47;100120.28;;;24.76;65.11
28167;BME280;15455;53.376;-6.262;2022-07-24T11:24:33;100122.34;;;24.96;69.03
28167;BME280;15455;53.376;-6.262;2022-07-24T11:27:19;100106.47;;;24.82;63.98
28167;BME280;15455;53.376;-6.262;2022-07-24T11:30:06;100111.94;;;24.81;66.63
28167;BME280;15455;53.376;-6.262;2022-07-24T11:32:59;100107.78;;;24.76;62.75
28167;BME280;15455;53.376;-6.262;2022-07-24T11:35:45;100098.94;;;24.76;65.11
28167;BME280;15455;53.376;-6.262;2022-07-24T11:38:31;100104.38;;;24.74;64.35
28167;BME280;15455;53.376;-6.262;2022-07-24T11:41:17;100074.19;;;24.61;64.60
28167;BME280;15455;53.376;-6.262;2022-07-24T11:44:02;100085.34;;;24.79;68.40
28167;BME280;15455;53.376;-6.262;2022-07-24T11:46:48;100100.03;;;24.60;63.97
28167;BME280;15455;53.376;-6.262;2022-07-24T11:52:40;100076.03;;;23.96;73.75
28167;BME280;15455;53.376;-6.262;2022-07-24T11:55:26;100068.16;;;24.07;70.26
28167;BME280;15455;53.376;-6.262;2022-07-24T11:58:17;100066.13;;;24.11;66.03
28167;BME280;15455;53.376;-6.262;2022-07-24T12:01:23;100053.09;;;24.19;68.51
28167;BME280;15455;53.376;-6.262;2022-07-24T12:04:09;100054.69;;;23.83;67.58
28167;BME280;15455;53.376;-6.262;2022-07-24T12:06:54;100056.97;;;23.89;70.74
28167;BME280;15455;53.376;-6.262;2022-07-24T12:09:44;100036.84;;;24.35;67.11
28167;BME280;15455;53.376;-6.262;2022-07-24T12:12:36;100032.59;;;24.83;60.80
28167;BME280;15455;53.376;-6.262;2022-07-24T12:15:24;100026.66;;;25.39;63.51
28167;BME280;15455;53.376;-6.262;2022-07-24T12:18:10;100024.06;;;25.73;56.90
28167;BME280;15455;53.376;-6.262;2022-07-24T12:21:01;100011.38;;;26.22;59.03
28167;BME280;15455;53.376;-6.262;2022-07-24T12:23:48;100029.31;;;26.42;54.78
28167;BME280;15455;53.376;-6.262;2022-07-24T12:29:42;100026.66;;;25.86;54.55
28167;BME280;15455;53.376;-6.262;2022-07-24T12:32:28;100017.63;;;25.28;56.20
28167;BME280;15455;53.376;-6.262;2022-07-24T12:35:14;100018.00;;;24.75;56.49
28167;BME280;15455;53.376;-6.262;2022-07-24T12:38:02;100019.13;;;24.47;61.66
28167;BME280;15455;53.376;-6.262;2022-07-24T12:40:49;100023.75;;;24.32;64.06
28167;BME280;15455;53.376;-6.262;2022-07-24T12:43:54;100017.94;;;24.01;60.90
28167;BME280;15455;53.376;-6.262;2022-07-24T12:46:41;100024.31;;;23.73;61.73
28167;BME280;15455;53.376;-6.262;2022-07-24T12:49:39;100014.19;;;23.52;64.13
28167;BME280;15455;53.376;-6.262;2022-07-24T12:52:25;100013.75;;;23.33;65.88
28167;BME280;15455;53.376;-6.262;2022-07-24T12:55:20;100011.56;;;23.25;65.94
28167;BME280;15455;53.376;-6.262;2022-07-24T12:58:06;100003.16;;;23.18;65.51
28167;BME280;15455;53.376;-6.262;2022-07-24T13:00:56;99998.34;;;23.11;68.46
28167;BME280;15455;53.376;-6.262;2022-07-24T13:03:42;99999.03;;;23.00;65.94
28167;BME280;15455;53.376;-6.262;2022-07-24T13:06:40;99990.06;;;22.88;65.91
28167;BME280;15455;53.376;-6.262;2022-07-24T13:09:27;99981.00;;;22.90;67.13
28167;BME280;15455;53.376;-6.262;2022-07-24T13:12:16;99986.22;;;22.92;64.60
28167;BME280;15455;53.376;-6.262;2022-07-24T13:15:01;99980.06;;;22.92;66.77
28167;BME280;15455;53.376;-6.262;2022-07-24T13:17:47;99969.41;;;22.92;67.43
28167;BME280;15455;53.376;-6.262;2022-07-24T13:20:33;99971.66;;;22.98;67.13
28167;BME280;15455;53.376;-6.262;2022-07-24T13:23:19;99962.72;;;23.39;66.34
28167;BME280;15455;53.376;-6.262;2022-07-24T13:26:04;99965.28;;;23.53;65.30
28167;BME280;15455;53.376;-6.262;2022-07-24T13:28:50;99964.22;;;23.56;63.57
28167;BME280;15455;53.376;-6.262;2022-07-24T13:31:35;99959.53;;;23.72;66.84
28167;BME280;15455;53.376;-6.262;2022-07-24T13:34:21;99953.56;;;24.69;66.44
28167;BME280;15455;53.376;-6.262;2022-07-24T13:37:07;99951.50;;;24.96;59.39
28167;BME280;15455;53.376;-6.262;2022-07-24T13:39:54;99959.41;;;24.74;61.30
28167;BME280;15455;53.376;-6.262;2022-07-24T13:42:40;99938.72;;;24.89;63.01
28167;BME280;15455;53.376;-6.262;2022-07-24T13:45:25;99943.44;;;24.85;60.27
28167;BME280;15455;53.376;-6.262;2022-07-24T13:48:11;99944.38;;;24.84;61.52
28167;BME280;15455;53.376;-6.262;2022-07-24T13:50:56;99927.13;;;25.12;62.16
28167;BME280;15455;53.376;-6.262;2022-07-24T13:53:42;99937.34;;;25.77;60.11
28167;BME280;15455;53.376;-6.262;2022-07-24T13:56:27;99929.41;;;25.87;54.38
28167;BME280;15455;53.376;-6.262;2022-07-24T13:59:13;99920.69;;;26.07;57.16
28167;BME280;15455;53.376;-6.262;2022-07-24T14:01:58;99919.66;;;26.31;56.14
28167;BME280;15455;53.376;-6.262;2022-07-24T14:04:44;99925.47;;;26.80;55.86
28167;BME280;15455;53.376;-6.262;2022-07-24T14:07:29;99922.88;;;27.11;54.46
28167;BME280;15455;53.376;-6.262;2022-07-24T14:10:15;99924.69;;;27.10;54.57
28167;BME280;15455;53.376;-6.262;2022-07-24T14:13:01;99928.47;;;26.86;52.64
28167;BME280;15455;53.376;-6.262;2022-07-24T14:15:46;99921.06;;;26.46;51.33
28167;BME280;15455;53.376;-6.262;2022-07-24T14:18:32;99928.56;;;25.75;53.20
28167;BME280;15455;53.376;-6.262;2022-07-24T14:21:17;99920.44;;;25.76;56.26
28167;BME280;15455;53.376;-6.262;2022-07-24T14:24:03;99922.38;;;25.74;58.53
28167;BME280;15455;53.376;-6.262;2022-07-24T14:26:51;99919.59;;;25.76;57.60
28167;BME280;15455;53.376;-6.262;2022-07-24T14:29:37;99917.50;;;25.91;56.03
28167;BME280;15455;53.376;-6.262;2022-07-24T14:32:22;99918.00;;;25.73;53.25
28167;BME280;15455;53.376;-6.262;2022-07-24T14:35:09;99908.41;;;25.48;56.17
28167;BME280;15455;53.376;-6.262;2022-07-24T14:37:55;99903.28;;;25.45;53.55
28167;BME280;15455;53.376;-6.262;2022-07-24T14:40:40;99902.06;;;25.38;58.03
28167;BME280;15455;53.376;-6.262;2022-07-24T14:43:26;99900.25;;;25.83;54.11